sensor_id;sensor_type;location;lat;lon;timestamp;P1;durP1;ratioP1;P2;durP2;ratioP2
3341;SDS011;1684;50.748;6.154;2023-02-15T00:00:41;40.30;;;24.57;;
3341;SDS011;1684;50.748;6.154;2023-02-15T00:03:10;43.73;;;26.47;;
3341;SDS011;1684;50.748;6.154;2023-02-15T00:05:38;44.30;;;23.93;;
3341;SDS011;1684;50.748;6.154;2023-02-15T00:08:06;39.43;;;23.20;;
3341;SDS011;1684;50.748;6.154;2023-02-15T00:10:34;43.73;;;22.90;;
3341;SDS011;1684;50.748;6.154;2023-02-15T00:13:02;49.50;;;23.90;;
3341;SDS011;1684;50.748;6.154;2023-02-15T00:15:31;36.40;;;23.57;;
3341;SDS011;1684;50.748;6.154;2023-02-15T00:18:00;41.87;;;22.53;;
3341;SDS011;1684;50.748;6.154;2023-02-15T00:20:29;41.07;;;21.80;;
3341;SDS011;1684;50.748;6.154;2023-02-15T00:22:58;39.87;;;22.73;;
3341;SDS011;1684;50.748;6.154;2023-02-15T00:25:26;35.23;;;21.10;;
3341;SDS011;1684;50.748;6.154;2023-02-15T00:27:54;42.30;;;24.10;;
3341;SDS011;1684;50.748;6.154;2023-02-15T00:30:22;46.13;;;24.27;;
3341;SDS011;1684;50.748;6.154;2023-02-15T00:32:51;42.13;;;21.83;;
3341;SDS011;1684;50.748;6.154;2023-02-15T00:35:20;38.20;;;21.60;;
3341;SDS011;1684;50.748;6.154;2023-02-15T00:37:49;48.57;;;24.47;;
3341;SDS011;1684;50.748;6.154;2023-02-15T00:40:18;49.47;;;24.17;;
3341;SDS011;1684;50.748;6.154;2023-02-15T00:42:46;39.80;;;21.70;;
3341;SDS011;1684;50.748;6.154;2023-02-15T00:45:15;47.10;;;24.53;;
3341;SDS011;1684;50.748;6.154;2023-02-15T00:47:43;50.37;;;24.30;;
3341;SDS011;1684;50.748;6.154;2023-02-15T00:50:11;44.50;;;22.70;;
3341;SDS011;1684;50.748;6.154;2023-02-15T00:52:41;44.47;;;21.03;;
3341;SDS011;1684;50.748;6.154;2023-02-15T00:55:09;44.00;;;23.20;;
3341;SDS011;1684;50.748;6.154;2023-02-15T00:57:38;44.27;;;23.03;;
3341;SDS011;1684;50.748;6.154;2023-02-15T01:00:06;41.37;;;22.90;;
3341;SDS011;1684;50.748;6.154;2023-02-15T01:02:35;46.27;;;23.53;;
3341;SDS011;1684;50.748;6.154;2023-02-15T01:05:03;39.37;;;23.90;;
3341;SDS011;1684;50.748;6.154;2023-02-15T01:07:32;40.87;;;23.50;;
3341;SDS011;1684;50.748;6.154;2023-02-15T01:10:01;46.90;;;24.87;;
3341;SDS011;1684;50.748;6.154;2023-02-15T01:12:30;42.83;;;22.67;;
3341;SDS011;1684;50.748;6.154;2023-02-15T01:14:58;34.23;;;20.33;;
3341;SDS011;1684;50.748;6.154;2023-02-15T01:17:29;42.23;;;23.20;;
3341;SDS011;1684;50.748;6.154;2023-02-15T01:19:58;34.67;;;21.47;;
3341;SDS011;1684;50.748;6.154;2023-02-15T01:22:27;42.47;;;21.10;;
3341;SDS011;1684;50.748;6.154;2023-02-15T01:24:55;36.87;;;21.10;;
3341;SDS011;1684;50.748;6.154;2023-02-15T01:27:25;40.37;;;22.87;;
3341;SDS011;1684;50.748;6.154;2023-02-15T01:29:56;36.10;;;20.47;;
3341;SDS011;1684;50.748;6.154;2023-02-15T01:32:25;37.77;;;21.10;;
3341;SDS011;1684;50.748;6.154;2023-02-15T01:34:54;36.70;;;19.77;;
3341;SDS011;1684;50.748;6.154;2023-02-15T01:37:24;34.57;;;19.30;;
3341;SDS011;1684;50.748;6.154;2023-02-15T01:39:52;44.83;;;21.30;;
3341;SDS011;1684;50.748;6.154;2023-02-15T01:42:21;32.13;;;20.90;;
3341;SDS011;1684;50.748;6.154;2023-02-15T01:44:54;35.60;;;18.73;;
3341;SDS011;1684;50.748;6.154;2023-02-15T01:47:25;30.63;;;18.20;;
3341;SDS011;1684;50.748;6.154;2023-02-15T01:49:59;35.70;;;19.70;;
3341;SDS011;1684;50.748;6.154;2023-02-15T01:52:31;32.47;;;18.90;;
3341;SDS011;1684;50.748;6.154;2023-02-15T01:55:00;31.83;;;19.17;;
3341;SDS011;1684;50.748;6.154;2023-02-15T01:57:33;33.90;;;19.50;;
3341;SDS011;1684;50.748;6.154;2023-02-15T02:00:03;27.50;;;16.97;;
3341;SDS011;1684;50.748;6.154;2023-02-15T02:02:32;37.53;;;18.57;;
3341;SDS011;1684;50.748;6.154;2023-02-15T02:05:01;33.40;;;18.37;;
3341;SDS011;1684;50.748;6.154;2023-02-15T02:07:33;32.10;;;19.07;;
3341;SDS011;1684;50.748;6.154;2023-02-15T02:10:03;32.60;;;19.93;;
3341;SDS011;1684;50.748;6.154;2023-02-15T02:12:34;35.17;;;18.17;;
3341;SDS011;1684;50.748;6.154;2023-02-15T02:15:04;37.47;;;18.20;;
3341;SDS011;1684;50.748;6.154;2023-02-15T02:17:35;27.47;;;17.80;;
3341;SDS011;1684;50.748;6.154;2023-02-15T02:20:10;33.37;;;17.43;;
3341;SDS011;1684;50.748;6.154;2023-02-15T02:25:37;32.70;;;16.90;;
3341;SDS011;1684;50.748;6.154;2023-02-15T02:28:12;30.77;;;18.47;;
3341;SDS011;1684;50.748;6.154;2023-02-15T02:30:51;27.53;;;16.27;;
3341;SDS011;1684;50.748;6.154;2023-02-15T02:33:29;30.27;;;18.13;;
3341;SDS011;1684;50.748;6.154;2023-02-15T02:36:06;30.20;;;15.53;;
3341;SDS011;1684;50.748;6.154;2023-02-15T02:38:44;25.67;;;14.70;;
3341;SDS011;1684;50.748;6.154;2023-02-15T02:41:16;31.40;;;16.70;;
3341;SDS011;1684;50.748;6.154;2023-02-15T02:43:47;27.77;;;16.37;;
3341;SDS011;1684;50.748;6.154;2023-02-15T02:46:17;33.47;;;18.10;;
3341;SDS011;1684;50.748;6.154;2023-02-15T02:48:49;36.53;;;18.47;;
3341;SDS011;1684;50.748;6.154;2023-02-15T02:51:17;27.43;;;15.90;;
3341;SDS011;1684;50.748;6.154;2023-02-15T02:53:49;30.40;;;16.43;;
3341;SDS011;1684;50.748;6.154;2023-02-15T02:56:21;34.03;;;15.73;;
3341;SDS011;1684;50.748;6.154;2023-02-15T02:58:54;31.70;;;16.83;;
3341;SDS011;1684;50.748;6.154;2023-02-15T03:01:23;27.83;;;16.53;;
3341;SDS011;1684;50.748;6.154;2023-02-15T03:03:54;33.73;;;18.20;;
3341;SDS011;1684;50.748;6.154;2023-02-15T03:06:24;29.00;;;16.50;;
3341;SDS011;1684;50.748;6.154;2023-02-15T03:08:54;25.53;;;15.27;;
3341;SDS011;1684;50.748;6.154;2023-02-15T03:11:25;25.23;;;15.20;;
3341;SDS011;1684;50.748;6.154;2023-02-15T03:13:53;32.93;;;17.43;;
3341;SDS011;1684;50.748;6.154;2023-02-15T03:16:21;22.90;;;13.80;;
3341;SDS011;1684;50.748;6.154;2023-02-15T03:18:55;25.43;;;13.60;;
3341;SDS011;1684;50.748;6.154;2023-02-15T03:21:27;19.63;;;12.07;;
3341;SDS011;1684;50.748;6.154;2023-02-15T03:23:59;26.93;;;13.30;;
3341;SDS011;1684;50.748;6.154;2023-02-15T03:26:30;19.67;;;11.37;;
3341;SDS011;1684;50.748;6.154;2023-02-15T03:29:00;25.77;;;12.83;;
3341;SDS011;1684;50.748;6.154;2023-02-15T03:31:30;24.37;;;11.13;;
3341;SDS011;1684;50.748;6.154;2023-02-15T03:34:02;23.57;;;13.67;;
3341;SDS011;1684;50.748;6.154;2023-02-15T03:36:32;26.93;;;13.40;;
3341;SDS011;1684;50.748;6.154;2023-02-15T03:39:03;24.10;;;12.53;;
3341;SDS011;1684;50.748;6.154;2023-02-15T03:41:34;26.23;;;13.17;;
3341;SDS011;1684;50.748;6.154;2023-02-15T03:44:06;27.73;;;14.60;;
3341;SDS011;1684;50.748;6.154;2023-02-15T03:46:35;23.40;;;12.70;;
3341;SDS011;1684;50.748;6.154;2023-02-15T03:49:09;23.77;;;13.13;;
3341;SDS011;1684;50.748;6.154;2023-02-15T03:51:40;25.93;;;13.67;;
3341;SDS011;1684;50.748;6.154;2023-02-15T03:54:08;23.53;;;12.90;;
3341;SDS011;1684;50.748;6.154;2023-02-15T03:56:37;18.27;;;12.60;;
3341;SDS011;1684;50.748;6.154;2023-02-15T03:59:06;22.33;;;11.83;;
3341;SDS011;1684;50.748;6.154;2023-02-15T04:01:54;20.63;;;12.70;;
3341;SDS011;1684;50.748;6.154;2023-02-15T04:04:33;20.93;;;11.70;;
3341;SDS011;1684;50.748;6.154;2023-02-15T04:07:02;20.60;;;12.27;;
3341;SDS011;1684;50.748;6.154;2023-02-15T04:09:31;18.47;;;10.77;;
3341;SDS011;1684;50.748;6.154;2023-02-15T04:12:17;21.97;;;12.60;;
3341;SDS011;1684;50.748;6.154;2023-02-15T04:14:45;19.13;;;11.40;;
3341;SDS011;1684;50.748;6.154;2023-02-15T04:17:31;26.83;;;12.53;;
3341;SDS011;1684;50.748;6.154;2023-02-15T04:20:01;23.17;;;12.17;;
3341;SDS011;1684;50.748;6.154;2023-02-15T04:22:47;22.10;;;12.10;;
3341;SDS011;1684;50.748;6.154;2023-02-15T04:25:33;22.63;;;11.50;;
3341;SDS011;1684;50.748;6.154;2023-02-15T04:28:01;19.93;;;11.50;;
3341;SDS011;1684;50.748;6.154;2023-02-15T04:30:29;23.00;;;10.43;;
3341;SDS011;1684;50.748;6.154;2023-02-15T04:32:58;21.30;;;11.70;;
3341;SDS011;1684;50.748;6.154;2023-02-15T04:35:28;17.37;;;11.10;;
3341;SDS011;1684;50.748;6.154;2023-02-15T04:37:57;19.63;;;11.67;;
3341;SDS011;1684;50.748;6.154;2023-02-15T04:40:26;16.00;;;11.23;;
3341;SDS011;1684;50.748;6.154;2023-02-15T04:42:54;19.20;;;11.23;;
3341;SDS011;1684;50.748;6.154;2023-02-15T04:45:22;21.07;;;12.30;;
3341;SDS011;1684;50.748;6.154;2023-02-15T04:47:50;18.00;;;10.90;;
3341;SDS011;1684;50.748;6.154;2023-02-15T04:50:19;25.43;;;12.10;;
3341;SDS011;1684;50.748;6.154;2023-02-15T04:52:48;27.60;;;13.43;;
3341;SDS011;1684;50.748;6.154;2023-02-15T04:55:17;23.30;;;13.43;;
3341;SDS011;1684;50.748;6.154;2023-02-15T04:57:45;26.33;;;12.10;;
3341;SDS011;1684;50.748;6.154;2023-02-15T05:00:14;20.00;;;11.80;;
3341;SDS011;1684;50.748;6.154;2023-02-15T05:02:42;17.23;;;10.43;;
3341;SDS011;1684;50.748;6.154;2023-02-15T05:05:11;22.33;;;10.83;;
3341;SDS011;1684;50.748;6.154;2023-02-15T05:07:41;21.83;;;11.37;;
3341;SDS011;1684;50.748;6.154;2023-02-15T05:10:11;18.47;;;10.37;;
3341;SDS011;1684;50.748;6.154;2023-02-15T05:12:39;14.87;;;10.00;;
3341;SDS011;1684;50.748;6.154;2023-02-15T05:15:08;18.17;;;10.47;;
3341;SDS011;1684;50.748;6.154;2023-02-15T05:17:44;15.87;;;10.83;;
3341;SDS011;1684;50.748;6.154;2023-02-15T05:20:12;17.20;;;8.77;;
3341;SDS011;1684;50.748;6.154;2023-02-15T05:22:41;17.93;;;9.80;;
3341;SDS011;1684;50.748;6.154;2023-02-15T05:25:11;16.17;;;10.37;;
3341;SDS011;1684;50.748;6.154;2023-02-15T05:27:57;18.50;;;9.30;;
3341;SDS011;1684;50.748;6.154;2023-02-15T05:30:43;15.80;;;9.17;;
3341;SDS011;1684;50.748;6.154;2023-02-15T05:33:11;16.27;;;9.00;;
3341;SDS011;1684;50.748;6.154;2023-02-15T05:35:39;20.10;;;10.87;;
3341;SDS011;1684;50.748;6.154;2023-02-15T05:38:08;13.30;;;8.50;;
3341;SDS011;1684;50.748;6.154;2023-02-15T05:40:37;14.80;;;8.87;;
3341;SDS011;1684;50.748;6.154;2023-02-15T05:43:07;17.47;;;8.57;;
3341;SDS011;1684;50.748;6.154;2023-02-15T05:45:35;15.37;;;8.67;;
3341;SDS011;1684;50.748;6.154;2023-02-15T05:48:04;15.47;;;9.00;;
3341;SDS011;1684;50.748;6.154;2023-02-15T05:50:32;19.50;;;10.30;;
3341;SDS011;1684;50.748;6.154;2023-02-15T05:53:01;13.60;;;8.13;;
3341;SDS011;1684;50.748;6.154;2023-02-15T05:55:29;12.20;;;7.90;;
3341;SDS011;1684;50.748;6.154;2023-02-15T05:57:59;16.43;;;8.97;;
3341;SDS011;1684;50.748;6.154;2023-02-15T06:00:27;17.00;;;9.73;;
3341;SDS011;1684;50.748;6.154;2023-02-15T06:05:29;16.07;;;8.27;;
3341;SDS011;1684;50.748;6.154;2023-02-15T06:07:58;13.87;;;7.77;;
3341;SDS011;1684;50.748;6.154;2023-02-15T06:10:27;14.43;;;8.30;;
3341;SDS011;1684;50.748;6.154;2023-02-15T06:12:56;16.40;;;8.37;;
3341;SDS011;1684;50.748;6.154;2023-02-15T06:15:26;14.60;;;8.10;;
3341;SDS011;1684;50.748;6.154;2023-02-15T06:18:02;14.07;;;8.50;;
3341;SDS011;1684;50.748;6.154;2023-02-15T06:20:31;13.40;;;7.23;;
3341;SDS011;1684;50.748;6.154;2023-02-15T06:22:59;13.07;;;7.43;;
3341;SDS011;1684;50.748;6.154;2023-02-15T06:25:28;15.80;;;7.77;;
3341;SDS011;1684;50.748;6.154;2023-02-15T06:27:56;14.70;;;7.53;;
3341;SDS011;1684;50.748;6.154;2023-02-15T06:30:26;11.23;;;7.43;;
3341;SDS011;1684;50.748;6.154;2023-02-15T06:32:54;15.80;;;7.70;;
3341;SDS011;1684;50.748;6.154;2023-02-15T06:35:23;11.23;;;7.37;;
3341;SDS011;1684;50.748;6.154;2023-02-15T06:37:51;13.00;;;7.00;;
3341;SDS011;1684;50.748;6.154;2023-02-15T06:40:20;9.17;;;5.70;;
3341;SDS011;1684;50.748;6.154;2023-02-15T06:42:48;15.00;;;8.07;;
3341;SDS011;1684;50.748;6.154;2023-02-15T06:45:17;11.47;;;7.23;;
3341;SDS011;1684;50.748;6.154;2023-02-15T06:47:46;11.60;;;6.43;;
3341;SDS011;1684;50.748;6.154;2023-02-15T06:50:15;19.07;;;7.63;;
3341;SDS011;1684;50.748;6.154;2023-02-15T06:52:43;13.03;;;6.63;;
3341;SDS011;1684;50.748;6.154;2023-02-15T06:55:11;13.90;;;7.73;;
3341;SDS011;1684;50.748;6.154;2023-02-15T06:57:40;16.40;;;9.53;;
3341;SDS011;1684;50.748;6.154;2023-02-15T07:00:08;14.07;;;9.07;;
3341;SDS011;1684;50.748;6.154;2023-02-15T07:02:45;16.40;;;9.30;;
3341;SDS011;1684;50.748;6.154;2023-02-15T07:05:27;21.17;;;8.47;;
3341;SDS011;1684;50.748;6.154;2023-02-15T07:07:57;14.23;;;7.70;;
3341;SDS011;1684;50.748;6.154;2023-02-15T07:10:26;13.10;;;9.20;;
3341;SDS011;1684;50.748;6.154;2023-02-15T07:12:55;15.50;;;9.53;;
3341;SDS011;1684;50.748;6.154;2023-02-15T07:15:24;17.20;;;9.67;;
3341;SDS011;1684;50.748;6.154;2023-02-15T07:17:52;18.27;;;9.73;;
3341;SDS011;1684;50.748;6.154;2023-02-15T07:20:21;18.10;;;10.87;;
3341;SDS011;1684;50.748;6.154;2023-02-15T07:22:51;17.53;;;9.67;;
3341;SDS011;1684;50.748;6.154;2023-02-15T07:25:20;17.37;;;10.73;;
3341;SDS011;1684;50.748;6.154;2023-02-15T07:27:55;18.97;;;10.00;;
3341;SDS011;1684;50.748;6.154;2023-02-15T07:30:24;16.13;;;10.03;;
3341;SDS011;1684;50.748;6.154;2023-02-15T07:32:54;19.73;;;11.03;;
3341;SDS011;1684;50.748;6.154;2023-02-15T07:35:45;20.97;;;10.57;;
3341;SDS011;1684;50.748;6.154;2023-02-15T07:38:16;18.70;;;11.23;;
3341;SDS011;1684;50.748;6.154;2023-02-15T07:40:44;16.93;;;11.00;;
3341;SDS011;1684;50.748;6.154;2023-02-15T07:43:13;14.73;;;9.20;;
3341;SDS011;1684;50.748;6.154;2023-02-15T07:45:41;20.93;;;9.30;;
3341;SDS011;1684;50.748;6.154;2023-02-15T07:48:10;23.53;;;12.27;;
3341;SDS011;1684;50.748;6.154;2023-02-15T07:50:38;20.20;;;11.40;;
3341;SDS011;1684;50.748;6.154;2023-02-15T07:53:07;19.93;;;11.57;;
3341;SDS011;1684;50.748;6.154;2023-02-15T07:55:37;22.97;;;12.27;;
3341;SDS011;1684;50.748;6.154;2023-02-15T07:58:05;24.07;;;11.90;;
3341;SDS011;1684;50.748;6.154;2023-02-15T08:00:35;21.63;;;13.43;;
3341;SDS011;1684;50.748;6.154;2023-02-15T08:03:22;22.83;;;11.87;;
3341;SDS011;1684;50.748;6.154;2023-02-15T08:05:55;25.10;;;12.10;;
3341;SDS011;1684;50.748;6.154;2023-02-15T08:08:25;22.83;;;12.70;;
3341;SDS011;1684;50.748;6.154;2023-02-15T08:11:01;20.13;;;11.83;;
3341;SDS011;1684;50.748;6.154;2023-02-15T08:13:48;23.80;;;12.80;;
3341;SDS011;1684;50.748;6.154;2023-02-15T08:16:26;26.53;;;13.00;;
3341;SDS011;1684;50.748;6.154;2023-02-15T08:18:55;27.47;;;14.83;;
3341;SDS011;1684;50.748;6.154;2023-02-15T08:21:25;20.30;;;12.50;;
3341;SDS011;1684;50.748;6.154;2023-02-15T08:23:54;26.80;;;14.47;;
3341;SDS011;1684;50.748;6.154;2023-02-15T08:26:24;24.70;;;11.70;;
3341;SDS011;1684;50.748;6.154;2023-02-15T08:28:52;26.77;;;12.80;;
3341;SDS011;1684;50.748;6.154;2023-02-15T08:31:22;31.30;;;14.20;;
3341;SDS011;1684;50.748;6.154;2023-02-15T08:33:51;28.07;;;14.00;;
3341;SDS011;1684;50.748;6.154;2023-02-15T08:36:20;20.30;;;12.40;;
3341;SDS011;1684;50.748;6.154;2023-02-15T08:38:49;21.63;;;12.43;;
3341;SDS011;1684;50.748;6.154;2023-02-15T08:41:18;23.67;;;13.93;;
3341;SDS011;1684;50.748;6.154;2023-02-15T08:43:49;19.77;;;11.80;;
3341;SDS011;1684;50.748;6.154;2023-02-15T08:46:18;23.17;;;10.97;;
3341;SDS011;1684;50.748;6.154;2023-02-15T08:48:48;25.00;;;10.90;;
3341;SDS011;1684;50.748;6.154;2023-02-15T08:51:17;18.50;;;10.70;;
3341;SDS011;1684;50.748;6.154;2023-02-15T08:53:47;19.00;;;10.30;;
3341;SDS011;1684;50.748;6.154;2023-02-15T08:56:16;21.67;;;11.47;;
3341;SDS011;1684;50.748;6.154;2023-02-15T08:58:45;25.90;;;13.87;;
3341;SDS011;1684;50.748;6.154;2023-02-15T09:01:15;23.70;;;12.20;;
3341;SDS011;1684;50.748;6.154;2023-02-15T09:03:46;22.90;;;12.00;;
3341;SDS011;1684;50.748;6.154;2023-02-15T09:06:15;18.03;;;10.90;;
3341;SDS011;1684;50.748;6.154;2023-02-15T09:08:44;20.43;;;11.83;;
3341;SDS011;1684;50.748;6.154;2023-02-15T09:11:13;18.27;;;10.67;;
3341;SDS011;1684;50.748;6.154;2023-02-15T09:13:48;19.10;;;11.23;;
3341;SDS011;1684;50.748;6.154;2023-02-15T09:16:18;18.00;;;9.50;;
3341;SDS011;1684;50.748;6.154;2023-02-15T09:18:47;21.90;;;10.70;;
3341;SDS011;1684;50.748;6.154;2023-02-15T09:21:17;18.20;;;10.00;;
3341;SDS011;1684;50.748;6.154;2023-02-15T09:23:47;14.47;;;9.00;;
3341;SDS011;1684;50.748;6.154;2023-02-15T09:26:16;16.83;;;9.83;;
3341;SDS011;1684;50.748;6.154;2023-02-15T09:28:45;25.03;;;10.53;;
3341;SDS011;1684;50.748;6.154;2023-02-15T09:31:15;17.60;;;10.20;;
3341;SDS011;1684;50.748;6.154;2023-02-15T09:33:46;17.27;;;9.67;;
3341;SDS011;1684;50.748;6.154;2023-02-15T09:36:16;23.43;;;12.10;;
3341;SDS011;1684;50.748;6.154;2023-02-15T09:38:44;21.03;;;10.23;;
3341;SDS011;1684;50.748;6.154;2023-02-15T09:41:21;18.37;;;10.70;;
3341;SDS011;1684;50.748;6.154;2023-02-15T09:43:54;18.13;;;10.40;;
3341;SDS011;1684;50.748;6.154;2023-02-15T09:46:38;14.47;;;9.20;;
3341;SDS011;1684;50.748;6.154;2023-02-15T09:49:12;15.70;;;9.70;;
3341;SDS011;1684;50.748;6.154;2023-02-15T09:51:54;17.33;;;9.40;;
3341;SDS011;1684;50.748;6.154;2023-02-15T09:54:30;14.00;;;8.37;;
3341;SDS011;1684;50.748;6.154;2023-02-15T09:57:02;16.27;;;7.80;;
3341;SDS011;1684;50.748;6.154;2023-02-15T09:59:36;14.03;;;8.40;;
3341;SDS011;1684;50.748;6.154;2023-02-15T10:02:11;15.33;;;8.13;;
3341;SDS011;1684;50.748;6.154;2023-02-15T10:04:54;14.60;;;8.20;;
3341;SDS011;1684;50.748;6.154;2023-02-15T10:07:35;18.10;;;8.20;;
3341;SDS011;1684;50.748;6.154;2023-02-15T10:10:13;15.10;;;8.10;;
3341;SDS011;1684;50.748;6.154;2023-02-15T10:12:53;13.50;;;7.43;;
3341;SDS011;1684;50.748;6.154;2023-02-15T10:15:30;14.40;;;8.70;;
3341;SDS011;1684;50.748;6.154;2023-02-15T10:18:14;17.33;;;7.60;;
3341;SDS011;1684;50.748;6.154;2023-02-15T10:20:49;13.20;;;8.57;;
3341;SDS011;1684;50.748;6.154;2023-02-15T10:23:24;12.50;;;7.03;;
3341;SDS011;1684;50.748;6.154;2023-02-15T10:25:56;14.00;;;7.43;;
3341;SDS011;1684;50.748;6.154;2023-02-15T10:28:34;10.73;;;6.67;;
3341;SDS011;1684;50.748;6.154;2023-02-15T10:31:09;17.60;;;8.00;;
3341;SDS011;1684;50.748;6.154;2023-02-15T10:33:40;13.43;;;7.43;;
3341;SDS011;1684;50.748;6.154;2023-02-15T10:36:21;14.70;;;7.60;;
3341;SDS011;1684;50.748;6.154;2023-02-15T10:38:52;10.87;;;7.50;;
3341;SDS011;1684;50.748;6.154;2023-02-15T10:41:26;12.53;;;8.03;;
3341;SDS011;1684;50.748;6.154;2023-02-15T10:44:05;15.83;;;7.90;;
3341;SDS011;1684;50.748;6.154;2023-02-15T10:46:44;12.13;;;6.50;;
3341;SDS011;1684;50.748;6.154;2023-02-15T10:49:22;15.90;;;8.20;;
3341;SDS011;1684;50.748;6.154;2023-02-15T10:51:58;11.27;;;6.90;;
3341;SDS011;1684;50.748;6.154;2023-02-15T10:54:32;17.57;;;7.00;;
3341;SDS011;1684;50.748;6.154;2023-02-15T10:57:08;11.70;;;7.60;;
3341;SDS011;1684;50.748;6.154;2023-02-15T10:59:47;13.40;;;7.33;;
3341;SDS011;1684;50.748;6.154;2023-02-15T11:02:20;14.77;;;7.00;;
3341;SDS011;1684;50.748;6.154;2023-02-15T11:04:53;12.70;;;6.70;;
3341;SDS011;1684;50.748;6.154;2023-02-15T11:07:25;10.90;;;6.83;;
3341;SDS011;1684;50.748;6.154;2023-02-15T11:09:56;11.30;;;7.00;;
3341;SDS011;1684;50.748;6.154;2023-02-15T11:12:28;12.17;;;6.67;;
3341;SDS011;1684;50.748;6.154;2023-02-15T11:15:00;13.37;;;6.80;;
3341;SDS011;1684;50.748;6.154;2023-02-15T11:17:30;11.77;;;6.53;;
3341;SDS011;1684;50.748;6.154;2023-02-15T11:20:04;14.47;;;7.40;;
3341;SDS011;1684;50.748;6.154;2023-02-15T11:22:36;12.20;;;6.57;;
3341;SDS011;1684;50.748;6.154;2023-02-15T11:25:14;11.00;;;6.53;;
3341;SDS011;1684;50.748;6.154;2023-02-15T11:27:44;10.73;;;6.17;;
3341;SDS011;1684;50.748;6.154;2023-02-15T11:30:15;10.23;;;6.90;;
3341;SDS011;1684;50.748;6.154;2023-02-15T11:32:44;9.90;;;6.10;;
3341;SDS011;1684;50.748;6.154;2023-02-15T11:35:18;11.63;;;6.73;;
3341;SDS011;1684;50.748;6.154;2023-02-15T11:37:50;9.33;;;5.90;;
3341;SDS011;1684;50.748;6.154;2023-02-15T11:40:20;12.87;;;6.87;;
3341;SDS011;1684;50.748;6.154;2023-02-15T11:42:51;12.63;;;7.50;;
3341;SDS011;1684;50.748;6.154;2023-02-15T11:45:22;12.47;;;6.20;;
3341;SDS011;1684;50.748;6.154;2023-02-15T11:47:54;9.67;;;6.50;;
3341;SDS011;1684;50.748;6.154;2023-02-15T11:50:23;13.40;;;6.97;;
3341;SDS011;1684;50.748;6.154;2023-02-15T11:52:54;11.47;;;7.40;;
3341;SDS011;1684;50.748;6.154;2023-02-15T11:55:26;13.90;;;6.93;;
3341;SDS011;1684;50.748;6.154;2023-02-15T11:57:57;12.60;;;6.93;;
3341;SDS011;1684;50.748;6.154;2023-02-15T12:00:32;12.63;;;6.53;;
3341;SDS011;1684;50.748;6.154;2023-02-15T12:05:49;12.10;;;7.27;;
3341;SDS011;1684;50.748;6.154;2023-02-15T12:08:23;15.47;;;8.53;;
3341;SDS011;1684;50.748;6.154;2023-02-15T12:10:57;16.60;;;9.37;;
3341;SDS011;1684;50.748;6.154;2023-02-15T12:13:26;12.33;;;8.63;;
3341;SDS011;1684;50.748;6.154;2023-02-15T12:15:57;15.13;;;9.13;;
3341;SDS011;1684;50.748;6.154;2023-02-15T12:18:36;11.03;;;6.47;;
3341;SDS011;1684;50.748;6.154;2023-02-15T12:21:05;16.83;;;8.40;;
3341;SDS011;1684;50.748;6.154;2023-02-15T12:23:39;15.57;;;9.40;;
3341;SDS011;1684;50.748;6.154;2023-02-15T12:26:09;17.20;;;9.87;;
3341;SDS011;1684;50.748;6.154;2023-02-15T12:28:38;18.73;;;11.83;;
3341;SDS011;1684;50.748;6.154;2023-02-15T12:31:07;22.13;;;10.30;;
3341;SDS011;1684;50.748;6.154;2023-02-15T12:33:38;18.73;;;11.53;;
3341;SDS011;1684;50.748;6.154;2023-02-15T12:36:12;17.77;;;10.93;;
3341;SDS011;1684;50.748;6.154;2023-02-15T12:38:44;20.87;;;10.67;;
3341;SDS011;1684;50.748;6.154;2023-02-15T12:41:29;20.83;;;12.37;;
3341;SDS011;1684;50.748;6.154;2023-02-15T12:44:05;19.47;;;11.37;;
3341;SDS011;1684;50.748;6.154;2023-02-15T12:46:39;12.20;;;7.43;;
3341;SDS011;1684;50.748;6.154;2023-02-15T12:49:14;15.00;;;9.20;;
3341;SDS011;1684;50.748;6.154;2023-02-15T12:51:49;16.97;;;9.43;;
3341;SDS011;1684;50.748;6.154;2023-02-15T12:54:47;17.27;;;9.07;;
3341;SDS011;1684;50.748;6.154;2023-02-15T12:57:21;15.10;;;9.03;;
3341;SDS011;1684;50.748;6.154;2023-02-15T12:59:51;19.67;;;10.70;;
3341;SDS011;1684;50.748;6.154;2023-02-15T13:02:21;16.93;;;9.90;;
3341;SDS011;1684;50.748;6.154;2023-02-15T13:04:50;16.53;;;9.67;;
3341;SDS011;1684;50.748;6.154;2023-02-15T13:07:21;15.20;;;9.57;;
3341;SDS011;1684;50.748;6.154;2023-02-15T13:09:51;20.70;;;12.07;;
3341;SDS011;1684;50.748;6.154;2023-02-15T13:12:20;17.60;;;11.80;;
3341;SDS011;1684;50.748;6.154;2023-02-15T13:14:50;18.07;;;11.03;;
3341;SDS011;1684;50.748;6.154;2023-02-15T13:17:21;19.50;;;11.00;;
3341;SDS011;1684;50.748;6.154;2023-02-15T13:19:56;19.30;;;12.90;;
3341;SDS011;1684;50.748;6.154;2023-02-15T13:22:27;21.30;;;12.13;;
3341;SDS011;1684;50.748;6.154;2023-02-15T13:24:58;18.87;;;11.77;;
3341;SDS011;1684;50.748;6.154;2023-02-15T13:27:29;15.27;;;10.70;;
3341;SDS011;1684;50.748;6.154;2023-02-15T13:30:02;20.23;;;12.53;;
3341;SDS011;1684;50.748;6.154;2023-02-15T13:32:33;20.83;;;12.40;;
3341;SDS011;1684;50.748;6.154;2023-02-15T13:35:03;19.27;;;10.60;;
3341;SDS011;1684;50.748;6.154;2023-02-15T13:37:45;18.13;;;10.70;;
3341;SDS011;1684;50.748;6.154;2023-02-15T13:40:20;19.90;;;10.97;;
3341;SDS011;1684;50.748;6.154;2023-02-15T13:42:50;18.60;;;11.97;;
3341;SDS011;1684;50.748;6.154;2023-02-15T13:45:27;16.10;;;11.10;;
3341;SDS011;1684;50.748;6.154;2023-02-15T13:48:06;24.30;;;11.63;;
3341;SDS011;1684;50.748;6.154;2023-02-15T13:50:41;20.60;;;11.47;;
3341;SDS011;1684;50.748;6.154;2023-02-15T13:53:18;16.37;;;10.47;;
3341;SDS011;1684;50.748;6.154;2023-02-15T13:55:51;16.60;;;10.77;;
3341;SDS011;1684;50.748;6.154;2023-02-15T13:58:25;20.80;;;11.97;;
3341;SDS011;1684;50.748;6.154;2023-02-15T14:00:57;19.57;;;10.07;;
3341;SDS011;1684;50.748;6.154;2023-02-15T14:03:42;16.10;;;10.27;;
3341;SDS011;1684;50.748;6.154;2023-02-15T14:06:17;18.07;;;10.37;;
3341;SDS011;1684;50.748;6.154;2023-02-15T14:08:54;16.70;;;9.48;;
3341;SDS011;1684;50.748;6.154;2023-02-15T14:11:30;20.23;;;12.00;;
3341;SDS011;1684;50.748;6.154;2023-02-15T14:14:22;17.43;;;9.07;;
3341;SDS011;1684;50.748;6.154;2023-02-15T14:17:00;17.40;;;11.30;;
3341;SDS011;1684;50.748;6.154;2023-02-15T14:19:35;17.80;;;11.20;;
3341;SDS011;1684;50.748;6.154;2023-02-15T14:22:07;21.20;;;13.23;;
3341;SDS011;1684;50.748;6.154;2023-02-15T14:24:39;20.73;;;12.57;;
3341;SDS011;1684;50.748;6.154;2023-02-15T14:27:14;23.87;;;14.40;;
3341;SDS011;1684;50.748;6.154;2023-02-15T14:29:49;19.53;;;11.50;;
3341;SDS011;1684;50.748;6.154;2023-02-15T14:32:20;23.93;;;13.03;;
3341;SDS011;1684;50.748;6.154;2023-02-15T14:34:52;18.67;;;12.00;;
3341;SDS011;1684;50.748;6.154;2023-02-15T14:37:24;22.47;;;13.27;;
3341;SDS011;1684;50.748;6.154;2023-02-15T14:39:55;22.30;;;14.67;;
3341;SDS011;1684;50.748;6.154;2023-02-15T14:42:45;22.53;;;13.70;;
3341;SDS011;1684;50.748;6.154;2023-02-15T14:45:17;22.17;;;13.73;;
3341;SDS011;1684;50.748;6.154;2023-02-15T14:47:48;25.90;;;15.40;;
3341;SDS011;1684;50.748;6.154;2023-02-15T14:50:37;32.40;;;16.03;;
3341;SDS011;1684;50.748;6.154;2023-02-15T14:53:15;26.10;;;15.40;;
3341;SDS011;1684;50.748;6.154;2023-02-15T14:58:36;27.43;;;16.43;;
3341;SDS011;1684;50.748;6.154;2023-02-15T15:01:05;29.17;;;15.47;;
3341;SDS011;1684;50.748;6.154;2023-02-15T15:03:34;25.00;;;15.70;;
3341;SDS011;1684;50.748;6.154;2023-02-15T15:06:03;28.50;;;16.50;;
3341;SDS011;1684;50.748;6.154;2023-02-15T15:08:34;25.80;;;15.70;;
3341;SDS011;1684;50.748;6.154;2023-02-15T15:14:09;35.50;;;17.33;;
3341;SDS011;1684;50.748;6.154;2023-02-15T15:16:50;25.10;;;15.67;;
3341;SDS011;1684;50.748;6.154;2023-02-15T15:22:18;26.40;;;15.90;;
3341;SDS011;1684;50.748;6.154;2023-02-15T15:24:50;30.83;;;17.50;;
3341;SDS011;1684;50.748;6.154;2023-02-15T15:27:39;29.33;;;16.47;;
3341;SDS011;1684;50.748;6.154;2023-02-15T15:32:59;27.70;;;15.60;;
3341;SDS011;1684;50.748;6.154;2023-02-15T15:35:33;28.70;;;16.30;;
3341;SDS011;1684;50.748;6.154;2023-02-15T15:41:03;27.70;;;17.40;;
3341;SDS011;1684;50.748;6.154;2023-02-15T15:43:42;21.20;;;15.00;;